INDIA METEOROLOGICAL DEPARTMENT, R.M.C. NEW DELHI
Dated:21 - 1 - 2018
METARS OF ALTERNATE AIRPORTS
Delhi      
VIDP 201830Z 00000KT 1500 R28/P2000 R29/P2000 BR NSC 11/08 Q1014 NOSIG=
Amritsar   
VIAR 201800Z 00000KT 2200 BR NSC 09/08 Q1014 NOSIG=
Lucknow    
VILK 201800Z 00000KT 1500 R27/2000 BR NSC 12/09 Q1014 NOSIG=
Jaipur     
VIJP 201800Z VRB02KT 2000 FU NSC 15/00 Q1015 NOSIG=
Ahmedabad  
VAAH 201800Z 00000KT 4000 HZ NSC 19/13 Q1013 NOSIG=
Mumbai     
VABB 201830Z 00000KT 3000 FU NSC 27/14 Q1012 NOSIG=